createdAt,value
2017-09-26T00:00:16.884Z,99.99
2017-09-26T00:01:16.885Z,99.99
2017-09-26T00:02:16.884Z,99.99
2017-09-26T00:03:16.884Z,99.99
2017-09-26T00:04:16.882Z,99.99
2017-09-26T00:05:16.883Z,99.99
2017-09-26T00:06:16.882Z,99.99
2017-09-26T00:07:16.882Z,99.99
2017-09-26T00:08:16.881Z,99.99
2017-09-26T00:09:16.880Z,99.99
2017-09-26T00:10:16.881Z,99.99
2017-09-26T00:11:16.881Z,99.99
2017-09-26T00:12:16.881Z,99.99
2017-09-26T00:13:16.879Z,99.99
2017-09-26T00:14:16.881Z,99.99
2017-09-26T00:15:16.880Z,99.99
2017-09-26T00:16:16.878Z,99.99
2017-09-26T00:17:16.879Z,99.99
2017-09-26T00:18:16.878Z,99.99
2017-09-26T00:19:16.880Z,99.99
2017-09-26T00:20:16.879Z,99.99
2017-09-26T00:21:16.879Z,99.99
2017-09-26T00:22:16.880Z,99.99
2017-09-26T00:23:16.880Z,99.99
2017-09-26T00:24:16.878Z,99.99
2017-09-26T00:25:16.878Z,99.99
2017-09-26T00:26:16.879Z,99.99
2017-09-26T00:27:16.879Z,99.99
2017-09-26T00:28:16.878Z,99.99
2017-09-26T00:29:16.877Z,99.99
2017-09-26T00:30:16.878Z,99.99
2017-09-26T00:31:16.878Z,99.99
2017-09-26T00:32:16.877Z,99.99
2017-09-26T00:33:16.877Z,99.99
2017-09-26T00:34:16.876Z,99.99
2017-09-26T00:35:16.877Z,99.99
2017-09-26T00:36:16.880Z,99.99
2017-09-26T00:37:16.879Z,99.99
2017-09-26T00:38:16.879Z,99.99
2017-09-26T00:39:16.876Z,99.99
2017-09-26T00:40:16.876Z,99.99
2017-09-26T00:41:16.875Z,99.99
2017-09-26T00:42:16.874Z,99.99
2017-09-26T00:43:16.875Z,99.99
2017-09-26T00:44:16.873Z,99.99
2017-09-26T00:45:16.874Z,99.99
2017-09-26T00:46:16.873Z,99.99
2017-09-26T00:47:16.873Z,99.99
2017-09-26T00:48:16.871Z,99.99
2017-09-26T00:49:16.872Z,99.99
2017-09-26T00:50:16.872Z,99.99
2017-09-26T00:51:16.872Z,99.99
2017-09-26T00:52:16.871Z,99.99
2017-09-26T00:53:16.870Z,99.99
2017-09-26T00:54:16.871Z,99.99
2017-09-26T00:55:16.870Z,99.99
2017-09-26T00:56:16.870Z,99.99
2017-09-26T00:57:16.869Z,99.99
2017-09-26T00:58:16.869Z,99.99
2017-09-26T00:59:16.869Z,99.99
2017-09-26T01:00:16.868Z,99.99
2017-09-26T01:01:16.867Z,99.99
2017-09-26T01:02:16.867Z,99.99
2017-09-26T01:03:16.868Z,99.99
2017-09-26T01:04:16.866Z,99.99
2017-09-26T01:05:16.867Z,99.99
2017-09-26T01:06:16.865Z,99.99
2017-09-26T01:07:16.868Z,99.99
2017-09-26T01:08:16.864Z,99.99
2017-09-26T01:09:16.863Z,99.99
2017-09-26T01:10:16.864Z,99.99
2017-09-26T01:11:16.867Z,99.99
2017-09-26T01:12:16.867Z,99.99
2017-09-26T01:13:16.863Z,99.99
2017-09-26T01:14:16.862Z,99.99
2017-09-26T01:15:16.863Z,99.99
2017-09-26T01:16:16.861Z,99.99
2017-09-26T01:17:16.862Z,99.99
2017-09-26T01:18:16.861Z,99.99
2017-09-26T01:19:16.862Z,99.99
2017-09-26T01:20:16.859Z,99.99
2017-09-26T01:21:16.860Z,99.99
2017-09-26T01:22:16.858Z,99.99
2017-09-26T01:23:16.861Z,99.99
2017-09-26T01:24:16.857Z,99.99
2017-09-26T01:25:16.857Z,99.99
2017-09-26T01:26:16.859Z,99.99
2017-09-26T01:27:16.856Z,99.99
2017-09-26T01:28:16.860Z,99.99
2017-09-26T01:29:16.855Z,99.99
2017-09-26T01:30:16.856Z,99.99
2017-09-26T01:31:16.856Z,99.99
2017-09-26T01:32:16.854Z,99.99
2017-09-26T01:33:16.853Z,99.99
2017-09-26T01:34:16.854Z,99.99
2017-09-26T01:35:16.854Z,99.99
2017-09-26T01:36:16.853Z,99.99
2017-09-26T01:37:16.852Z,99.99
2017-09-26T01:38:16.852Z,99.99
2017-09-26T01:39:16.852Z,99.99
2017-09-26T01:40:16.850Z,99.99
2017-09-26T01:41:16.851Z,99.99
2017-09-26T01:42:16.852Z,99.99
2017-09-26T01:43:16.850Z,99.99
2017-09-26T01:44:16.857Z,99.99
2017-09-26T01:45:16.849Z,99.99
2017-09-26T01:46:16.849Z,99.99
2017-09-26T01:47:16.851Z,99.99
2017-09-26T01:48:16.848Z,99.99
2017-09-26T01:49:16.847Z,99.99
2017-09-26T01:50:16.848Z,99.99
2017-09-26T01:51:16.847Z,99.99
2017-09-26T01:52:16.847Z,99.99
2017-09-26T01:53:16.846Z,99.99
2017-09-26T01:54:16.846Z,99.99
2017-09-26T01:55:16.845Z,99.99
2017-09-26T01:56:16.844Z,99.99
2017-09-26T01:57:16.844Z,99.99
2017-09-26T01:58:16.844Z,99.99
2017-09-26T01:59:16.845Z,99.99
2017-09-26T02:00:16.843Z,99.99
2017-09-26T02:01:16.844Z,99.99
2017-09-26T02:02:16.842Z,99.99
2017-09-26T02:03:16.848Z,99.99
2017-09-26T02:04:16.841Z,99.99
2017-09-26T02:05:16.842Z,99.99
2017-09-26T02:06:16.842Z,99.99
2017-09-26T02:07:16.841Z,99.99
2017-09-26T02:08:16.839Z,99.99
2017-09-26T02:09:16.840Z,99.99
2017-09-26T02:10:16.873Z,99.99
2017-09-26T02:11:16.839Z,99.99
2017-09-26T02:12:16.842Z,99.99
2017-09-26T02:13:16.836Z,99.99
2017-09-26T02:14:16.838Z,99.99
2017-09-26T02:15:16.837Z,99.99
2017-09-26T02:16:16.836Z,99.99
2017-09-26T02:17:16.837Z,99.99
2017-09-26T02:18:16.835Z,99.99
2017-09-26T02:19:16.836Z,99.99
2017-09-26T02:20:16.835Z,99.99
2017-09-26T02:21:16.838Z,99.99
2017-09-26T02:22:16.835Z,99.99
2017-09-26T02:23:16.833Z,99.99
2017-09-26T02:24:16.833Z,99.99
2017-09-26T02:25:16.832Z,99.99
2017-09-26T02:26:16.833Z,99.99
2017-09-26T02:27:16.833Z,99.99
2017-09-26T02:28:16.833Z,99.99
2017-09-26T02:29:16.831Z,99.99
2017-09-26T02:30:16.832Z,99.99
2017-09-26T02:31:16.831Z,99.99
2017-09-26T02:32:16.830Z,99.99
2017-09-26T02:33:16.830Z,99.99
2017-09-26T02:34:16.829Z,99.99
2017-09-26T02:35:16.831Z,99.99
2017-09-26T02:36:16.830Z,99.99
2017-09-26T02:37:16.828Z,99.99
2017-09-26T02:38:16.830Z,99.99
2017-09-26T02:39:16.829Z,99.99
2017-09-26T02:40:16.827Z,99.99
2017-09-26T02:41:16.828Z,99.99
2017-09-26T02:42:16.827Z,99.99
2017-09-26T02:43:16.827Z,99.99
2017-09-26T02:44:16.826Z,99.99
2017-09-26T02:45:16.827Z,99.99
2017-09-26T02:46:16.826Z,99.99
2017-09-26T02:47:16.827Z,99.99
2017-09-26T02:48:16.825Z,99.99
2017-09-26T02:49:16.838Z,99.99
2017-09-26T02:50:16.825Z,99.99
2017-09-26T02:51:16.826Z,99.99
2017-09-26T02:52:16.824Z,99.99
2017-09-26T02:53:16.824Z,99.99
2017-09-26T02:54:16.824Z,99.99
2017-09-26T02:55:16.823Z,99.99
2017-09-26T02:56:16.823Z,99.99
2017-09-26T02:57:16.824Z,99.99
2017-09-26T02:58:16.823Z,99.99
2017-09-26T02:59:16.822Z,99.99
2017-09-26T03:00:16.822Z,99.99
2017-09-26T03:01:16.822Z,99.99
2017-09-26T03:02:16.822Z,99.99
2017-09-26T03:03:16.822Z,99.99
2017-09-26T03:04:16.821Z,99.99
2017-09-26T03:05:16.821Z,99.99
2017-09-26T03:06:16.821Z,99.99
2017-09-26T03:07:16.823Z,99.99
2017-09-26T03:08:16.820Z,99.99
2017-09-26T03:09:16.819Z,99.99
2017-09-26T03:10:16.818Z,99.99
2017-09-26T03:11:16.819Z,99.99
2017-09-26T03:12:16.819Z,99.99
2017-09-26T03:13:16.818Z,99.99
2017-09-26T03:14:16.818Z,99.99
2017-09-26T03:15:16.818Z,99.99
2017-09-26T03:16:16.819Z,99.99
2017-09-26T03:17:16.817Z,99.99
2017-09-26T03:18:16.819Z,99.99
2017-09-26T03:19:16.818Z,99.99
2017-09-26T03:20:16.816Z,99.99
2017-09-26T03:21:16.818Z,99.99
2017-09-26T03:22:16.817Z,99.99
2017-09-26T03:23:16.817Z,99.99
2017-09-26T03:24:16.816Z,99.99
2017-09-26T03:25:16.816Z,99.99
2017-09-26T03:26:16.817Z,99.99
2017-09-26T03:27:16.817Z,99.99
2017-09-26T03:28:16.816Z,99.99
2017-09-26T03:29:16.820Z,99.99
2017-09-26T03:30:16.820Z,99.99
2017-09-26T03:31:16.817Z,99.99
2017-09-26T03:32:16.822Z,99.99
2017-09-26T03:33:16.818Z,99.99
2017-09-26T03:34:16.817Z,99.99
2017-09-26T03:35:16.818Z,99.99
2017-09-26T03:36:16.817Z,99.99
2017-09-26T03:37:16.817Z,99.99
2017-09-26T03:38:16.823Z,99.99
2017-09-26T03:39:16.818Z,99.99
2017-09-26T03:40:16.817Z,99.99
2017-09-26T03:41:16.818Z,99.99
2017-09-26T03:42:16.819Z,99.99
2017-09-26T03:43:16.818Z,99.99
2017-09-26T03:44:16.818Z,99.99
2017-09-26T03:45:16.819Z,99.99
2017-09-26T03:46:16.820Z,99.99
2017-09-26T03:47:16.819Z,99.99
2017-09-26T03:48:16.819Z,99.99
2017-09-26T03:49:16.819Z,99.99
2017-09-26T03:50:16.819Z,99.99
2017-09-26T03:51:16.820Z,99.99
2017-09-26T03:52:16.819Z,99.99
2017-09-26T03:53:16.819Z,99.99
2017-09-26T03:54:16.821Z,99.99
2017-09-26T03:55:16.819Z,99.99
2017-09-26T03:56:16.821Z,99.99
2017-09-26T03:57:16.819Z,99.99
2017-09-26T03:58:16.821Z,99.99
2017-09-26T03:59:16.820Z,99.99
2017-09-26T04:00:16.820Z,99.99
2017-09-26T04:01:16.826Z,99.99
2017-09-26T04:02:16.820Z,99.99
2017-09-26T04:03:16.823Z,99.99
2017-09-26T04:04:16.821Z,99.99
2017-09-26T04:05:16.822Z,99.99
2017-09-26T04:06:16.825Z,99.99
2017-09-26T04:07:16.821Z,99.99
2017-09-26T04:08:16.821Z,99.99
2017-09-26T04:09:16.821Z,99.99
2017-09-26T04:10:16.823Z,99.99
2017-09-26T04:11:16.822Z,99.99
2017-09-26T04:12:16.823Z,99.99
2017-09-26T04:13:16.823Z,99.99
2017-09-26T04:14:16.823Z,99.99
2017-09-26T04:15:16.824Z,99.99
2017-09-26T04:16:16.827Z,99.99
2017-09-26T04:17:16.824Z,99.99
2017-09-26T04:18:16.823Z,99.99
2017-09-26T04:19:16.824Z,99.99
2017-09-26T04:20:16.823Z,99.99
2017-09-26T04:21:16.831Z,99.99
2017-09-26T04:22:16.823Z,99.99
2017-09-26T04:23:16.827Z,99.99
2017-09-26T04:24:16.824Z,99.99
2017-09-26T04:25:16.824Z,99.99
2017-09-26T04:26:16.824Z,99.99
2017-09-26T04:27:16.824Z,99.99
2017-09-26T04:28:16.824Z,99.99
2017-09-26T04:29:16.825Z,99.99
2017-09-26T04:30:16.826Z,99.99
2017-09-26T04:31:16.826Z,99.99
2017-09-26T04:32:16.822Z,99.99
2017-09-26T04:33:16.825Z,99.99
2017-09-26T04:34:16.824Z,99.99
2017-09-26T04:35:16.826Z,99.99
2017-09-26T04:36:16.825Z,99.99
2017-09-26T04:37:16.825Z,99.99
2017-09-26T04:38:16.825Z,99.99
2017-09-26T04:39:16.825Z,99.99
2017-09-26T04:40:16.824Z,99.99
2017-09-26T04:41:16.826Z,99.99
2017-09-26T04:42:16.827Z,99.99
2017-09-26T04:43:16.827Z,99.99
2017-09-26T04:44:16.826Z,99.99
2017-09-26T04:45:16.826Z,99.99
2017-09-26T04:46:16.828Z,99.99
2017-09-26T04:47:16.827Z,99.99
2017-09-26T04:48:16.828Z,99.99
2017-09-26T04:49:16.827Z,99.99
2017-09-26T04:50:16.827Z,99.99
2017-09-26T04:51:16.828Z,99.99
2017-09-26T04:52:16.826Z,99.99
2017-09-26T04:53:16.828Z,99.99
2017-09-26T04:54:16.827Z,99.99
2017-09-26T04:55:16.828Z,99.99
2017-09-26T04:56:16.825Z,99.99
2017-09-26T04:57:16.828Z,99.99
2017-09-26T04:58:16.829Z,99.99
2017-09-26T04:59:16.828Z,99.99
2017-09-26T05:00:16.826Z,99.99
2017-09-26T05:01:16.859Z,99.99
2017-09-26T05:02:16.827Z,99.99
2017-09-26T05:03:16.828Z,99.99
2017-09-26T05:04:16.827Z,99.99
2017-09-26T05:05:16.827Z,99.99
2017-09-26T05:06:16.828Z,99.99
2017-09-26T05:07:16.827Z,99.99
2017-09-26T05:08:16.827Z,99.99
2017-09-26T05:09:16.827Z,99.99
2017-09-26T05:10:16.827Z,99.99
2017-09-26T05:11:16.828Z,99.99
2017-09-26T05:12:16.829Z,99.99
2017-09-26T05:13:16.826Z,99.99
2017-09-26T05:14:16.828Z,99.99
2017-09-26T05:15:16.827Z,99.99
2017-09-26T05:16:16.847Z,99.99
2017-09-26T05:17:16.826Z,99.99
2017-09-26T05:18:16.826Z,99.99
2017-09-26T05:19:16.826Z,99.99
2017-09-26T05:20:16.826Z,99.99
2017-09-26T05:21:16.825Z,99.99
2017-09-26T05:22:16.825Z,99.99
2017-09-26T05:23:16.826Z,99.99
2017-09-26T05:24:16.825Z,99.99
2017-09-26T05:25:16.825Z,99.99
2017-09-26T05:26:16.825Z,99.99
2017-09-26T05:27:16.826Z,99.99
2017-09-26T05:28:16.824Z,99.99
2017-09-26T05:29:16.825Z,99.99
2017-09-26T05:30:16.823Z,99.99
2017-09-26T05:31:16.826Z,99.99
2017-09-26T05:32:16.825Z,99.99
2017-09-26T05:33:16.824Z,99.99
2017-09-26T05:34:16.825Z,99.99
2017-09-26T05:35:16.824Z,99.99
2017-09-26T05:36:16.823Z,99.99
2017-09-26T05:37:16.824Z,99.99
2017-09-26T05:38:16.825Z,99.99
2017-09-26T05:39:16.824Z,99.99
2017-09-26T05:40:16.823Z,99.99
2017-09-26T05:41:16.824Z,99.99
2017-09-26T05:42:16.824Z,99.99
2017-09-26T05:43:16.822Z,99.99
2017-09-26T05:44:16.823Z,99.99
2017-09-26T05:45:16.822Z,99.99
2017-09-26T05:46:16.822Z,99.99
2017-09-26T05:47:16.822Z,99.99
2017-09-26T05:48:16.821Z,99.99
2017-09-26T05:49:16.820Z,99.99
2017-09-26T05:50:16.821Z,99.99
2017-09-26T05:51:16.820Z,99.99
2017-09-26T05:52:16.820Z,99.99
2017-09-26T05:53:16.820Z,99.99
2017-09-26T05:54:16.820Z,99.99
2017-09-26T05:55:16.820Z,99.99
2017-09-26T05:56:16.820Z,99.99
2017-09-26T05:57:16.820Z,99.99
2017-09-26T05:58:16.831Z,99.99
2017-09-26T05:59:16.819Z,99.99
2017-09-26T06:00:16.819Z,99.99
2017-09-26T06:01:16.818Z,99.99
2017-09-26T06:02:16.817Z,99.99
2017-09-26T06:03:16.820Z,99.99
2017-09-26T06:04:16.817Z,99.99
2017-09-26T06:05:16.819Z,99.99
2017-09-26T06:06:16.818Z,99.99
2017-09-26T06:07:16.818Z,99.99
2017-09-26T06:08:16.819Z,99.99
2017-09-26T06:09:16.817Z,99.99
2017-09-26T06:10:16.818Z,99.99
2017-09-26T06:11:16.819Z,99.99
2017-09-26T06:12:16.819Z,99.99
2017-09-26T06:13:16.819Z,99.95
2017-09-26T06:14:16.818Z,99.62
2017-09-26T06:15:16.818Z,99.99
2017-09-26T06:16:16.817Z,99.52
2017-09-26T06:17:16.817Z,99.18
2017-09-26T06:18:16.818Z,98.99
2017-09-26T06:19:16.817Z,99.62
2017-09-26T06:20:16.817Z,99.04
2017-09-26T06:21:16.822Z,99.04
2017-09-26T06:22:16.818Z,98.94
2017-09-26T06:23:16.820Z,99.04
2017-09-26T06:24:16.820Z,98.57
2017-09-26T06:25:16.818Z,98.37
2017-09-26T06:26:16.819Z,98.08
2017-09-26T06:27:16.819Z,98.37
2017-09-26T06:28:16.822Z,97.99
2017-09-26T06:29:16.819Z,97.99
2017-09-26T06:30:16.819Z,97.80
2017-09-26T06:31:16.821Z,97.99
2017-09-26T06:32:16.820Z,97.61
2017-09-26T06:33:16.820Z,98.57
2017-09-26T06:34:16.820Z,98.47
2017-09-26T06:35:16.826Z,98.18
2017-09-26T06:36:16.823Z,98.66
2017-09-26T06:37:16.823Z,98.47
2017-09-26T06:38:16.821Z,98.08
2017-09-26T06:39:16.822Z,97.89
2017-09-26T06:40:16.822Z,97.89
2017-09-26T06:41:16.823Z,97.89
2017-09-26T06:42:16.824Z,97.89
2017-09-26T06:43:16.825Z,97.71
2017-09-26T06:44:16.824Z,97.71
2017-09-26T06:45:16.825Z,97.99
2017-09-26T06:46:16.824Z,97.89
2017-09-26T06:47:16.826Z,98.37
2017-09-26T06:48:16.827Z,98.08
2017-09-26T06:49:16.828Z,97.80
2017-09-26T06:50:16.829Z,97.52
2017-09-26T06:51:16.827Z,97.61
2017-09-26T06:52:16.828Z,96.84
2017-09-26T06:53:16.829Z,96.56
2017-09-26T06:54:16.830Z,96.61
2017-09-26T06:55:16.829Z,96.99
2017-09-26T06:56:16.829Z,96.32
2017-09-26T06:57:16.832Z,96.27
2017-09-26T06:58:16.831Z,95.56
2017-09-26T06:59:16.832Z,95.94
2017-09-26T07:00:16.832Z,95.94
2017-09-26T07:01:16.833Z,95.75
2017-09-26T07:02:16.834Z,95.46
2017-09-26T07:03:16.835Z,95.46
2017-09-26T07:04:16.835Z,96.03
2017-09-26T07:05:16.836Z,95.36
2017-09-26T07:06:16.836Z,95.17
2017-09-26T07:07:16.837Z,94.79
2017-09-26T07:08:16.837Z,95.17
2017-09-26T07:09:16.838Z,94.31
2017-09-26T07:10:16.838Z,94.89
2017-09-26T07:11:16.841Z,94.70
2017-09-26T07:12:16.840Z,94.98
2017-09-26T07:13:16.841Z,94.79
2017-09-26T07:14:16.843Z,95.07
2017-09-26T07:15:16.845Z,95.07
2017-09-26T07:16:16.845Z,96.08
2017-09-26T07:17:16.844Z,96.56
2017-09-26T07:18:16.852Z,96.32
2017-09-26T07:19:16.848Z,95.79
2017-09-26T07:20:16.847Z,96.75
2017-09-26T07:21:16.848Z,95.65
2017-09-26T07:22:16.850Z,95.07
2017-09-26T07:23:16.852Z,95.46
2017-09-26T07:24:16.852Z,94.98
2017-09-26T07:25:16.852Z,94.31
2017-09-26T07:26:16.854Z,94.70
2017-09-26T07:27:16.855Z,94.51
2017-09-26T07:28:16.855Z,94.41
2017-09-26T07:29:16.857Z,94.79
2017-09-26T07:30:16.856Z,95.27
2017-09-26T07:31:16.858Z,95.46
2017-09-26T07:32:16.857Z,95.46
2017-09-26T07:33:16.859Z,94.84
2017-09-26T07:34:16.861Z,95.61
2017-09-26T07:35:16.862Z,95.79
2017-09-26T07:36:16.863Z,95.84
2017-09-26T07:37:16.863Z,95.65
2017-09-26T07:38:16.865Z,95.75
2017-09-26T07:39:16.866Z,95.94
2017-09-26T07:40:16.866Z,95.84
2017-09-26T07:41:16.866Z,95.65
2017-09-26T07:42:16.868Z,95.94
2017-09-26T07:43:16.870Z,95.65
2017-09-26T07:44:16.870Z,95.56
2017-09-26T07:45:16.870Z,95.22
2017-09-26T07:46:16.873Z,95.46
2017-09-26T07:47:16.880Z,95.36
2017-09-26T07:48:16.873Z,95.36
2017-09-26T07:49:16.876Z,94.70
2017-09-26T07:50:16.890Z,94.89
2017-09-26T07:51:16.878Z,95.07
2017-09-26T07:52:16.882Z,95.07
2017-09-26T07:53:16.879Z,95.56
2017-09-26T07:54:16.879Z,95.94
2017-09-26T07:55:16.886Z,95.65
2017-09-26T07:56:16.900Z,95.46
2017-09-26T07:57:16.882Z,94.79
2017-09-26T07:58:16.883Z,94.60
2017-09-26T07:59:16.883Z,95.07
2017-09-26T08:00:16.886Z,95.70
2017-09-26T08:01:16.888Z,95.61
2017-09-26T08:02:16.886Z,95.51
2017-09-26T08:03:16.889Z,95.79
2017-09-26T08:04:16.890Z,95.94
2017-09-26T08:05:16.889Z,95.79
2017-09-26T08:06:16.890Z,95.94
2017-09-26T08:07:16.893Z,95.65
2017-09-26T08:08:16.893Z,95.07
2017-09-26T08:09:16.893Z,95.17
2017-09-26T08:10:16.894Z,95.75
2017-09-26T08:11:16.897Z,95.46
2017-09-26T08:12:16.896Z,95.46
2017-09-26T08:13:16.896Z,95.27
2017-09-26T08:14:16.898Z,95.75
2017-09-26T08:15:16.900Z,95.46
2017-09-26T08:16:16.899Z,95.07
2017-09-26T08:17:16.901Z,95.27
2017-09-26T08:18:16.903Z,95.27
2017-09-26T08:19:16.903Z,94.51
2017-09-26T08:20:16.904Z,94.79
2017-09-26T08:21:16.904Z,94.51
2017-09-26T08:22:16.906Z,94.51
2017-09-26T08:23:16.907Z,94.70
2017-09-26T08:24:16.908Z,94.22
2017-09-26T08:25:16.908Z,94.22
2017-09-26T08:26:16.910Z,94.02
2017-09-26T08:27:16.913Z,94.31
2017-09-26T08:28:16.911Z,94.22
2017-09-26T08:29:16.911Z,94.22
2017-09-26T08:30:16.915Z,94.60
2017-09-26T08:31:16.916Z,94.22
2017-09-26T08:32:16.915Z,94.60
2017-09-26T08:33:16.918Z,93.88
2017-09-26T08:34:16.919Z,94.26
2017-09-26T08:35:16.926Z,94.07
2017-09-26T08:36:16.918Z,93.60
2017-09-26T08:37:16.922Z,93.12
2017-09-26T08:38:16.923Z,92.93
2017-09-26T08:39:16.923Z,92.88
2017-09-26T08:40:16.929Z,91.92
2017-09-26T08:41:16.925Z,91.53
2017-09-26T08:42:16.928Z,91.83
2017-09-26T08:43:16.929Z,91.63
2017-09-26T08:44:16.928Z,91.16
2017-09-26T08:45:16.930Z,90.58
2017-09-26T08:46:16.933Z,91.06
2017-09-26T08:47:16.933Z,90.67
2017-09-26T08:48:16.935Z,90.48
2017-09-26T08:49:16.936Z,89.91
2017-09-26T08:50:16.938Z,89.86
2017-09-26T08:51:16.939Z,89.48
2017-09-26T08:52:16.942Z,87.99
2017-09-26T08:53:16.943Z,87.13
2017-09-26T08:54:16.946Z,87.32
2017-09-26T08:55:16.947Z,86.65
2017-09-26T08:56:16.947Z,86.27
2017-09-26T08:57:16.950Z,85.83
2017-09-26T08:58:16.956Z,84.44
2017-09-26T08:59:16.954Z,84.15
2017-09-26T09:00:16.957Z,84.58
2017-09-26T09:01:16.960Z,84.39
2017-09-26T09:02:16.962Z,84.88
2017-09-26T09:03:16.966Z,84.58
2017-09-26T09:04:16.967Z,84.39
2017-09-26T09:05:16.969Z,83.86
2017-09-26T09:06:16.973Z,81.07
2017-09-26T09:07:16.978Z,79.14
2017-09-26T09:08:17.016Z,80.58
2017-09-26T09:09:16.982Z,79.09
2017-09-26T09:10:16.985Z,80.16
2017-09-26T09:11:16.991Z,81.41
2017-09-26T09:12:16.997Z,80.40
2017-09-26T09:13:16.998Z,79.63
2017-09-26T09:14:17.001Z,80.74
2017-09-26T09:15:17.005Z,81.56
2017-09-26T09:16:17.009Z,83.05
2017-09-26T09:17:17.014Z,84.68
2017-09-26T09:18:17.016Z,84.68
2017-09-26T09:19:17.023Z,84.88
2017-09-26T09:20:17.022Z,84.30
2017-09-26T09:21:17.026Z,84.30
2017-09-26T09:22:17.035Z,84.11
2017-09-26T09:23:17.037Z,84.58
2017-09-26T09:24:17.036Z,84.49
2017-09-26T09:25:17.041Z,84.88
2017-09-26T09:26:17.043Z,84.58
2017-09-26T09:27:17.048Z,84.53
2017-09-26T09:28:17.050Z,81.64
2017-09-26T09:29:17.053Z,78.94
2017-09-26T09:30:17.055Z,76.48
2017-09-26T09:31:17.060Z,75.27
2017-09-26T09:32:17.065Z,74.62
2017-09-26T09:33:17.067Z,74.82
2017-09-26T09:34:17.070Z,74.71
2017-09-26T09:35:17.075Z,74.65
2017-09-26T09:36:17.078Z,74.27
2017-09-26T09:37:17.081Z,77.11
2017-09-26T09:38:17.085Z,75.07
2017-09-26T09:39:17.091Z,74.46
2017-09-26T09:40:17.093Z,74.50
2017-09-26T09:41:17.099Z,73.60
2017-09-26T09:42:17.102Z,74.11
2017-09-26T09:43:17.108Z,74.65
2017-09-26T09:44:17.111Z,74.11
2017-09-26T09:45:17.132Z,72.45
2017-09-26T09:46:17.121Z,70.47
2017-09-26T09:47:17.125Z,69.51
2017-09-26T09:48:17.130Z,69.99
2017-09-26T09:49:17.136Z,68.16
2017-09-26T09:50:17.142Z,67.97
2017-09-26T09:51:17.148Z,67.52
2017-09-26T09:52:17.154Z,67.94
2017-09-26T09:53:17.161Z,66.20
2017-09-26T09:54:17.165Z,67.03
2017-09-26T09:55:17.172Z,66.78
2017-09-26T09:56:17.179Z,65.47
2017-09-26T09:57:17.185Z,64.92
2017-09-26T09:58:17.192Z,64.79
2017-09-26T09:59:17.197Z,65.24
2017-09-26T10:00:17.206Z,64.53
2017-09-26T10:01:17.244Z,63.02
2017-09-26T10:02:17.221Z,61.60
2017-09-26T10:03:17.228Z,60.28
2017-09-26T10:04:17.234Z,60.54
2017-09-26T10:05:17.243Z,62.31
2017-09-26T10:06:17.251Z,61.67
2017-09-26T10:07:17.261Z,61.64
2017-09-26T10:08:17.267Z,61.83
2017-09-26T10:09:17.277Z,64.79
2017-09-26T10:10:17.285Z,65.59
2017-09-26T10:11:17.297Z,63.98
2017-09-26T10:12:17.303Z,62.31
2017-09-26T10:13:17.311Z,61.57
2017-09-26T10:14:17.319Z,60.22
2017-09-26T10:15:17.333Z,60.28
2017-09-26T10:16:17.337Z,58.64
2017-09-26T10:17:17.347Z,58.70
2017-09-26T10:18:17.356Z,60.10
2017-09-26T10:19:17.366Z,60.13
2017-09-26T10:20:17.374Z,61.35
2017-09-26T10:21:17.385Z,61.71
2017-09-26T10:22:17.393Z,61.99
2017-09-26T10:23:17.403Z,61.44
2017-09-26T10:24:17.412Z,62.09
2017-09-26T10:25:17.421Z,62.70
2017-09-26T10:26:17.430Z,60.99
2017-09-26T10:27:17.440Z,60.35
2017-09-26T10:28:17.450Z,59.86
2017-09-26T10:29:17.460Z,58.73
2017-09-26T10:30:17.470Z,58.22
2017-09-26T10:31:17.478Z,59.83
2017-09-26T10:32:17.487Z,61.06
2017-09-26T10:33:17.496Z,62.45
2017-09-26T10:34:17.506Z,64.47
2017-09-26T10:35:17.514Z,64.53
2017-09-26T10:36:17.525Z,64.79
2017-09-26T10:37:17.533Z,65.40
2017-09-26T10:38:17.543Z,65.88
2017-09-26T10:39:17.551Z,65.75
2017-09-26T10:40:17.559Z,67.16
2017-09-26T10:41:17.567Z,67.80
2017-09-26T10:42:17.576Z,68.86
2017-09-26T10:43:17.584Z,69.50
2017-09-26T10:44:17.591Z,69.60
2017-09-26T10:45:17.600Z,70.75
2017-09-26T10:46:17.607Z,71.61
2017-09-26T10:47:17.614Z,71.77
2017-09-26T10:48:17.621Z,71.48
2017-09-26T10:49:17.627Z,71.39
2017-09-26T10:50:17.635Z,72.54
2017-09-26T10:51:17.642Z,72.83
2017-09-26T10:52:17.648Z,72.06
2017-09-26T10:53:17.654Z,72.83
2017-09-26T10:54:17.660Z,71.65
2017-09-26T10:55:17.672Z,69.98
2017-09-26T10:56:17.672Z,69.50
2017-09-26T10:57:17.677Z,69.98
2017-09-26T10:58:17.684Z,70.43
2017-09-26T10:59:17.691Z,70.90
2017-09-26T11:00:17.693Z,72.25
2017-09-26T11:01:17.700Z,71.81
2017-09-26T11:02:17.706Z,70.94
2017-09-26T11:03:17.710Z,70.46
2017-09-26T11:04:17.714Z,70.56
2017-09-26T11:05:17.720Z,70.52
2017-09-26T11:06:17.726Z,70.72
2017-09-26T11:07:17.730Z,72.16
2017-09-26T11:08:17.736Z,72.34
2017-09-26T11:09:17.745Z,72.34
2017-09-26T11:10:17.751Z,72.29
2017-09-26T11:11:17.750Z,71.71
2017-09-26T11:12:17.754Z,71.71
2017-09-26T11:13:17.759Z,70.46
2017-09-26T11:14:17.763Z,70.84
2017-09-26T11:15:17.768Z,70.65
2017-09-26T11:16:17.772Z,70.75
2017-09-26T11:17:17.777Z,71.08
2017-09-26T11:18:17.781Z,71.42
2017-09-26T11:19:17.785Z,71.46
2017-09-26T11:20:17.789Z,71.04
2017-09-26T11:21:17.794Z,70.56
2017-09-26T11:22:17.797Z,71.04
2017-09-26T11:23:17.802Z,71.42
2017-09-26T11:24:17.805Z,71.33
2017-09-26T11:25:17.815Z,71.04
2017-09-26T11:26:17.815Z,71.14
2017-09-26T11:27:17.819Z,71.04
2017-09-26T11:28:17.821Z,71.81
2017-09-26T11:29:17.827Z,70.68
2017-09-26T11:30:17.830Z,70.84
2017-09-26T11:31:17.836Z,71.14
2017-09-26T11:32:17.838Z,71.61
2017-09-26T11:33:17.841Z,71.39
2017-09-26T11:34:17.847Z,72.16
2017-09-26T11:35:17.851Z,71.87
2017-09-26T11:36:17.854Z,71.77
2017-09-26T11:37:17.858Z,71.58
2017-09-26T11:38:17.862Z,71.14
2017-09-26T11:39:17.865Z,70.94
2017-09-26T11:40:17.868Z,71.23
2017-09-26T11:41:17.872Z,71.71
2017-09-26T11:42:17.877Z,71.36
2017-09-26T11:43:17.881Z,71.08
2017-09-26T11:44:17.884Z,70.40
2017-09-26T11:45:17.888Z,71.61
2017-09-26T11:46:17.891Z,71.42
2017-09-26T11:47:17.896Z,71.42
2017-09-26T11:48:17.902Z,71.58
2017-09-26T11:49:17.903Z,72.64
2017-09-26T11:50:17.908Z,73.31
2017-09-26T11:51:17.912Z,72.73
2017-09-26T11:52:17.917Z,72.64
2017-09-26T11:53:17.918Z,73.11
2017-09-26T11:54:17.922Z,72.64
2017-09-26T11:55:17.926Z,72.73
2017-09-26T11:56:17.928Z,73.31
2017-09-26T11:57:17.932Z,72.92
2017-09-26T11:58:17.935Z,72.92
2017-09-26T11:59:17.938Z,72.92
2017-09-26T12:00:17.942Z,72.58
2017-09-26T12:01:17.946Z,72.67
2017-09-26T12:02:17.986Z,72.34
2017-09-26T12:03:17.955Z,72.58
2017-09-26T12:04:17.957Z,72.48
2017-09-26T12:05:17.960Z,71.65
2017-09-26T12:06:17.962Z,72.58
2017-09-26T12:07:17.969Z,72.42
2017-09-26T12:08:17.972Z,71.61
2017-09-26T12:09:17.974Z,73.06
2017-09-26T12:10:17.977Z,73.25
2017-09-26T12:11:17.982Z,72.96
2017-09-26T12:12:17.984Z,72.86
2017-09-26T12:13:17.990Z,73.15
2017-09-26T12:14:17.993Z,73.54
2017-09-26T12:15:17.995Z,73.83
2017-09-26T12:16:17.998Z,71.71
2017-09-26T12:17:18.002Z,71.58
2017-09-26T12:18:18.005Z,72.34
2017-09-26T12:19:18.009Z,73.02
2017-09-26T12:20:18.012Z,72.34
2017-09-26T12:21:18.015Z,73.41
2017-09-26T12:22:18.019Z,72.34
2017-09-26T12:23:18.025Z,72.77
2017-09-26T12:24:18.024Z,70.84
2017-09-26T12:25:18.029Z,71.23
2017-09-26T12:26:18.031Z,71.46
2017-09-26T12:27:18.036Z,70.30
2017-09-26T12:28:18.039Z,70.40
2017-09-26T12:29:18.042Z,70.88
2017-09-26T12:30:18.046Z,70.40
2017-09-26T12:31:18.048Z,70.59
2017-09-26T12:32:18.052Z,70.50
2017-09-26T12:33:18.055Z,70.68
2017-09-26T12:34:18.058Z,69.24
2017-09-26T12:35:18.062Z,70.59
2017-09-26T12:36:18.066Z,70.62
2017-09-26T12:37:18.070Z,69.57
2017-09-26T12:38:18.072Z,70.11
2017-09-26T12:39:18.077Z,69.44
2017-09-26T12:40:18.079Z,70.11
2017-09-26T12:41:18.082Z,70.98
2017-09-26T12:42:18.087Z,70.88
2017-09-26T12:43:18.089Z,71.08
2017-09-26T12:44:18.094Z,70.53
2017-09-26T12:45:18.097Z,69.63
2017-09-26T12:46:18.100Z,69.67
2017-09-26T12:47:18.114Z,68.99
2017-09-26T12:48:18.107Z,68.26
2017-09-26T12:49:18.110Z,67.58
2017-09-26T12:50:18.114Z,68.80
2017-09-26T12:51:18.117Z,69.18
2017-09-26T12:52:18.122Z,69.57